Vallejo, CA

1:34 PM PST on December 28, 2014 (GMT -0800)
Federal Terrace, VSFCD | Change Station
CLOSE
Current Station
Personal Weather Station
Location: Vallejo, CA
Elevation: 34 ft
Nearby Weather Stations

Elev 34 ft 38.13 °N, 122.27 °W | Updated 6 minutes ago

Clear
Clear
54.5 °F
Feels Like 54.5 °F
N
2.0
Wind Variable Wind from NW
Gusts 5.0 mph

Today
High -- | Low -- °F
--% Chance of Precip.
Yesterday
High -- | Low -- °F
Precip. -- in
7:24 AM 4:56 PM
First Quarter, 51% visible
Pressure 30.26 in
Visibility 10.0 miles
Clouds Clear
Dew Point 39 °F
Humidity 57%
Rainfall 0.00 in
Snow Depth Not available.
UV 1.5 out of 12
Pollen 5.30 out of 12
Air Quality Not available.
Flu Activity Not available.
METAR KAPC 282054Z AUTO 24004KT 10SM CLR 12/02 A3029 RMK AO2 SLP246 T01170017 58022 $

More Conditions Fewer Conditions

Pressure 30.26 in
Visibility 10.0 miles
Clouds Clear
Dew Point 39 °F
Humidity 57%
Rainfall 0.00 in
Snow Depth Not available.
UV 1.5 out of 12
Pollen 5.30 out of 12
Air Quality Not available.
Flu Activity Not available.
METAR KAPC 282054Z AUTO 24004KT 10SM CLR 12/02 A3029 RMK AO2 SLP246 T01170017 58022 $

More Conditions Fewer Conditions

10-Day Weather Forecast

Almanac

Astronomy

Dec. 28, 2014 Rise Set
Actual Time
Civil Twilight
Nautical Twilight
Astronomical Twilight
Moon
Length of Visible Light
Length of Day
Tomorrow will be .
, % of the Moon is Illuminated

Today's Extremes

State Highs State Lows

Community

WunderPhotos

Upload Photos

1,781,433 photos uploaded!

WunderBlogs® & News

Nearby

Air Quality

  Air Quality AQ Index Pollutant
Not available.

Snow Depth

Station Depth Elevation

Earthquake Activity

City Distance Mag. Time & Date
Minimum magnitude displayed is 2.5.

Coastal Water Temperatures

Place Temperature

Nearby Weather Stations